sensor_id;sensor_type;location;lat;lon;timestamp;P1;durP1;ratioP1;P2;durP2;ratioP2
32292;SDS011;43233;48.608;8.838;2023-04-25T00:01:36;2.60;;;2.43;;
32292;SDS011;43233;48.608;8.838;2023-04-25T00:04:03;4.17;;;3.00;;
32292;SDS011;43233;48.608;8.838;2023-04-25T00:06:30;3.27;;;2.97;;
32292;SDS011;43233;48.608;8.838;2023-04-25T00:08:57;2.90;;;2.40;;
32292;SDS011;43233;48.608;8.838;2023-04-25T00:11:23;7.00;;;2.70;;
32292;SDS011;43233;48.608;8.838;2023-04-25T00:13:49;3.67;;;2.80;;
32292;SDS011;43233;48.608;8.838;2023-04-25T00:16:19;2.90;;;2.60;;
32292;SDS011;43233;48.608;8.838;2023-04-25T00:18:44;3.50;;;3.20;;
32292;SDS011;43233;48.608;8.838;2023-04-25T00:21:16;3.97;;;3.30;;
32292;SDS011;43233;48.608;8.838;2023-04-25T00:23:43;3.47;;;2.50;;
32292;SDS011;43233;48.608;8.838;2023-04-25T00:26:10;3.43;;;2.73;;
32292;SDS011;43233;48.608;8.838;2023-04-25T00:28:36;3.30;;;3.00;;
32292;SDS011;43233;48.608;8.838;2023-04-25T00:31:03;3.00;;;2.80;;
32292;SDS011;43233;48.608;8.838;2023-04-25T00:33:28;3.30;;;2.90;;
32292;SDS011;43233;48.608;8.838;2023-04-25T00:35:55;8.40;;;3.27;;
32292;SDS011;43233;48.608;8.838;2023-04-25T00:38:20;14.30;;;3.17;;
32292;SDS011;43233;48.608;8.838;2023-04-25T00:40:46;2.73;;;2.50;;
32292;SDS011;43233;48.608;8.838;2023-04-25T00:43:12;4.67;;;2.83;;
32292;SDS011;43233;48.608;8.838;2023-04-25T00:45:38;6.50;;;3.77;;
32292;SDS011;43233;48.608;8.838;2023-04-25T00:48:04;5.23;;;2.97;;
32292;SDS011;43233;48.608;8.838;2023-04-25T00:50:30;3.63;;;2.43;;
32292;SDS011;43233;48.608;8.838;2023-04-25T00:52:58;2.57;;;2.33;;
32292;SDS011;43233;48.608;8.838;2023-04-25T00:55:25;2.60;;;2.27;;
32292;SDS011;43233;48.608;8.838;2023-04-25T00:57:50;7.93;;;3.00;;
32292;SDS011;43233;48.608;8.838;2023-04-25T01:00:16;4.33;;;2.97;;
32292;SDS011;43233;48.608;8.838;2023-04-25T01:02:42;3.93;;;3.07;;
32292;SDS011;43233;48.608;8.838;2023-04-25T01:05:09;3.40;;;2.83;;
32292;SDS011;43233;48.608;8.838;2023-04-25T01:07:36;4.23;;;2.53;;
32292;SDS011;43233;48.608;8.838;2023-04-25T01:10:03;2.83;;;2.73;;
32292;SDS011;43233;48.608;8.838;2023-04-25T01:12:29;3.23;;;3.03;;
32292;SDS011;43233;48.608;8.838;2023-04-25T01:14:55;3.07;;;2.37;;
32292;SDS011;43233;48.608;8.838;2023-04-25T01:17:21;3.97;;;3.00;;
32292;SDS011;43233;48.608;8.838;2023-04-25T01:19:47;3.07;;;2.83;;
32292;SDS011;43233;48.608;8.838;2023-04-25T01:22:14;3.00;;;2.70;;
32292;SDS011;43233;48.608;8.838;2023-04-25T01:24:40;2.63;;;2.43;;
32292;SDS011;43233;48.608;8.838;2023-04-25T01:27:06;2.63;;;2.43;;
32292;SDS011;43233;48.608;8.838;2023-04-25T01:29:32;2.83;;;2.57;;
32292;SDS011;43233;48.608;8.838;2023-04-25T01:31:59;2.87;;;2.67;;
32292;SDS011;43233;48.608;8.838;2023-04-25T01:34:26;2.90;;;2.67;;
32292;SDS011;43233;48.608;8.838;2023-04-25T01:36:51;3.50;;;2.33;;
32292;SDS011;43233;48.608;8.838;2023-04-25T01:39:18;4.70;;;2.40;;
32292;SDS011;43233;48.608;8.838;2023-04-25T01:41:48;2.10;;;1.97;;
32292;SDS011;43233;48.608;8.838;2023-04-25T01:44:14;2.77;;;2.57;;
32292;SDS011;43233;48.608;8.838;2023-04-25T01:46:40;2.13;;;2.03;;
32292;SDS011;43233;48.608;8.838;2023-04-25T01:49:06;10.73;;;3.83;;
32292;SDS011;43233;48.608;8.838;2023-04-25T01:51:32;4.60;;;3.30;;
32292;SDS011;43233;48.608;8.838;2023-04-25T01:53:58;2.57;;;2.37;;
32292;SDS011;43233;48.608;8.838;2023-04-25T01:56:24;4.40;;;2.30;;
32292;SDS011;43233;48.608;8.838;2023-04-25T01:58:50;2.80;;;2.60;;
32292;SDS011;43233;48.608;8.838;2023-04-25T02:01:16;2.50;;;2.30;;
32292;SDS011;43233;48.608;8.838;2023-04-25T02:03:42;2.53;;;2.40;;
32292;SDS011;43233;48.608;8.838;2023-04-25T02:06:08;3.00;;;2.80;;
32292;SDS011;43233;48.608;8.838;2023-04-25T02:08:34;3.50;;;2.70;;
32292;SDS011;43233;48.608;8.838;2023-04-25T02:11:02;4.27;;;2.60;;
32292;SDS011;43233;48.608;8.838;2023-04-25T02:13:28;4.53;;;3.10;;
32292;SDS011;43233;48.608;8.838;2023-04-25T02:15:53;3.03;;;2.80;;
32292;SDS011;43233;48.608;8.838;2023-04-25T02:18:19;2.83;;;2.63;;
32292;SDS011;43233;48.608;8.838;2023-04-25T02:20:46;2.63;;;2.40;;
32292;SDS011;43233;48.608;8.838;2023-04-25T02:23:11;2.90;;;2.70;;
32292;SDS011;43233;48.608;8.838;2023-04-25T02:25:37;3.70;;;2.57;;
32292;SDS011;43233;48.608;8.838;2023-04-25T02:28:03;3.30;;;2.53;;
32292;SDS011;43233;48.608;8.838;2023-04-25T02:30:29;4.20;;;2.60;;
32292;SDS011;43233;48.608;8.838;2023-04-25T02:32:54;2.53;;;2.30;;
32292;SDS011;43233;48.608;8.838;2023-04-25T02:35:20;2.40;;;2.30;;
32292;SDS011;43233;48.608;8.838;2023-04-25T02:37:45;2.97;;;2.43;;
32292;SDS011;43233;48.608;8.838;2023-04-25T02:40:11;2.53;;;2.20;;
32292;SDS011;43233;48.608;8.838;2023-04-25T02:42:37;6.53;;;3.10;;
32292;SDS011;43233;48.608;8.838;2023-04-25T02:45:03;3.27;;;2.70;;
32292;SDS011;43233;48.608;8.838;2023-04-25T02:47:29;3.77;;;2.80;;
32292;SDS011;43233;48.608;8.838;2023-04-25T02:49:55;3.10;;;2.90;;
32292;SDS011;43233;48.608;8.838;2023-04-25T02:52:21;3.23;;;2.93;;
32292;SDS011;43233;48.608;8.838;2023-04-25T02:54:46;2.83;;;2.63;;
32292;SDS011;43233;48.608;8.838;2023-04-25T02:57:12;4.17;;;2.53;;
32292;SDS011;43233;48.608;8.838;2023-04-25T02:59:38;3.13;;;2.93;;
32292;SDS011;43233;48.608;8.838;2023-04-25T03:02:03;3.00;;;2.80;;
32292;SDS011;43233;48.608;8.838;2023-04-25T03:04:29;2.93;;;2.73;;
32292;SDS011;43233;48.608;8.838;2023-04-25T03:06:55;3.27;;;3.07;;
32292;SDS011;43233;48.608;8.838;2023-04-25T03:09:20;2.57;;;2.40;;
32292;SDS011;43233;48.608;8.838;2023-04-25T03:11:46;3.87;;;2.90;;
32292;SDS011;43233;48.608;8.838;2023-04-25T03:14:12;4.43;;;2.70;;
32292;SDS011;43233;48.608;8.838;2023-04-25T03:16:38;3.37;;;2.83;;
32292;SDS011;43233;48.608;8.838;2023-04-25T03:19:04;3.13;;;2.93;;
32292;SDS011;43233;48.608;8.838;2023-04-25T03:21:31;3.40;;;3.17;;
32292;SDS011;43233;48.608;8.838;2023-04-25T03:23:58;2.90;;;2.70;;
32292;SDS011;43233;48.608;8.838;2023-04-25T03:26:24;3.30;;;3.00;;
32292;SDS011;43233;48.608;8.838;2023-04-25T03:28:50;2.77;;;2.67;;
32292;SDS011;43233;48.608;8.838;2023-04-25T03:31:15;3.70;;;2.77;;
32292;SDS011;43233;48.608;8.838;2023-04-25T03:33:41;3.57;;;3.33;;
32292;SDS011;43233;48.608;8.838;2023-04-25T03:36:07;3.40;;;3.10;;
32292;SDS011;43233;48.608;8.838;2023-04-25T03:38:33;4.73;;;4.30;;
32292;SDS011;43233;48.608;8.838;2023-04-25T03:40:59;4.77;;;3.90;;
32292;SDS011;43233;48.608;8.838;2023-04-25T03:43:25;3.30;;;3.00;;
32292;SDS011;43233;48.608;8.838;2023-04-25T03:45:51;4.90;;;2.70;;
32292;SDS011;43233;48.608;8.838;2023-04-25T03:48:16;4.63;;;3.30;;
32292;SDS011;43233;48.608;8.838;2023-04-25T03:50:42;4.17;;;3.43;;
32292;SDS011;43233;48.608;8.838;2023-04-25T03:53:08;6.30;;;3.90;;
32292;SDS011;43233;48.608;8.838;2023-04-25T03:55:33;3.90;;;3.03;;
32292;SDS011;43233;48.608;8.838;2023-04-25T03:57:59;4.17;;;3.57;;
32292;SDS011;43233;48.608;8.838;2023-04-25T04:00:25;4.30;;;3.97;;
32292;SDS011;43233;48.608;8.838;2023-04-25T04:02:51;9.13;;;4.20;;
32292;SDS011;43233;48.608;8.838;2023-04-25T04:05:16;7.70;;;3.77;;
32292;SDS011;43233;48.608;8.838;2023-04-25T04:07:42;4.40;;;3.40;;
32292;SDS011;43233;48.608;8.838;2023-04-25T04:10:11;3.53;;;3.23;;
32292;SDS011;43233;48.608;8.838;2023-04-25T04:12:37;4.17;;;3.77;;
32292;SDS011;43233;48.608;8.838;2023-04-25T04:15:06;3.83;;;3.50;;
32292;SDS011;43233;48.608;8.838;2023-04-25T04:17:33;5.67;;;3.70;;
32292;SDS011;43233;48.608;8.838;2023-04-25T04:19:59;7.43;;;3.50;;
32292;SDS011;43233;48.608;8.838;2023-04-25T04:22:25;3.17;;;2.93;;
32292;SDS011;43233;48.608;8.838;2023-04-25T04:24:50;3.20;;;2.90;;
32292;SDS011;43233;48.608;8.838;2023-04-25T04:27:17;6.40;;;3.10;;
32292;SDS011;43233;48.608;8.838;2023-04-25T04:29:44;5.80;;;3.70;;
32292;SDS011;43233;48.608;8.838;2023-04-25T04:32:11;6.70;;;3.53;;
32292;SDS011;43233;48.608;8.838;2023-04-25T04:34:38;3.20;;;3.00;;
32292;SDS011;43233;48.608;8.838;2023-04-25T04:37:04;5.60;;;3.17;;
32292;SDS011;43233;48.608;8.838;2023-04-25T04:39:31;5.30;;;3.30;;
32292;SDS011;43233;48.608;8.838;2023-04-25T04:41:58;4.77;;;3.70;;
32292;SDS011;43233;48.608;8.838;2023-04-25T04:44:24;3.57;;;3.27;;
32292;SDS011;43233;48.608;8.838;2023-04-25T04:46:50;4.20;;;3.67;;
32292;SDS011;43233;48.608;8.838;2023-04-25T04:49:16;6.53;;;4.70;;
32292;SDS011;43233;48.608;8.838;2023-04-25T04:51:42;7.20;;;3.77;;
32292;SDS011;43233;48.608;8.838;2023-04-25T04:54:12;4.13;;;3.70;;
32292;SDS011;43233;48.608;8.838;2023-04-25T04:56:38;7.93;;;3.30;;
32292;SDS011;43233;48.608;8.838;2023-04-25T04:59:03;13.23;;;4.10;;
32292;SDS011;43233;48.608;8.838;2023-04-25T05:01:29;3.03;;;2.83;;
32292;SDS011;43233;48.608;8.838;2023-04-25T05:03:55;4.07;;;3.10;;
32292;SDS011;43233;48.608;8.838;2023-04-25T05:06:25;4.70;;;3.30;;
32292;SDS011;43233;48.608;8.838;2023-04-25T05:08:52;4.30;;;4.00;;
32292;SDS011;43233;48.608;8.838;2023-04-25T05:11:18;5.07;;;3.83;;
32292;SDS011;43233;48.608;8.838;2023-04-25T05:13:44;8.50;;;5.10;;
32292;SDS011;43233;48.608;8.838;2023-04-25T05:16:10;11.57;;;5.50;;
32292;SDS011;43233;48.608;8.838;2023-04-25T05:18:37;9.40;;;4.97;;
32292;SDS011;43233;48.608;8.838;2023-04-25T05:21:03;9.20;;;5.53;;
32292;SDS011;43233;48.608;8.838;2023-04-25T05:23:30;6.40;;;4.30;;
32292;SDS011;43233;48.608;8.838;2023-04-25T05:25:57;4.00;;;3.60;;
32292;SDS011;43233;48.608;8.838;2023-04-25T05:28:22;6.37;;;4.77;;
32292;SDS011;43233;48.608;8.838;2023-04-25T05:30:48;3.73;;;3.43;;
32292;SDS011;43233;48.608;8.838;2023-04-25T05:33:14;4.23;;;3.83;;
32292;SDS011;43233;48.608;8.838;2023-04-25T05:35:40;4.60;;;3.40;;
32292;SDS011;43233;48.608;8.838;2023-04-25T05:38:06;4.30;;;3.90;;
32292;SDS011;43233;48.608;8.838;2023-04-25T05:40:31;4.43;;;4.03;;
32292;SDS011;43233;48.608;8.838;2023-04-25T05:42:57;4.97;;;4.00;;
32292;SDS011;43233;48.608;8.838;2023-04-25T05:45:23;4.47;;;3.07;;
32292;SDS011;43233;48.608;8.838;2023-04-25T05:47:48;5.43;;;3.13;;
32292;SDS011;43233;48.608;8.838;2023-04-25T05:50:14;4.83;;;3.60;;
32292;SDS011;43233;48.608;8.838;2023-04-25T05:52:40;4.80;;;2.97;;
32292;SDS011;43233;48.608;8.838;2023-04-25T05:55:06;3.33;;;3.03;;
32292;SDS011;43233;48.608;8.838;2023-04-25T05:57:32;2.83;;;2.60;;
32292;SDS011;43233;48.608;8.838;2023-04-25T05:59:57;3.80;;;2.60;;
32292;SDS011;43233;48.608;8.838;2023-04-25T06:02:23;3.30;;;2.70;;
32292;SDS011;43233;48.608;8.838;2023-04-25T06:04:51;2.43;;;2.30;;
32292;SDS011;43233;48.608;8.838;2023-04-25T06:07:17;3.23;;;2.93;;
32292;SDS011;43233;48.608;8.838;2023-04-25T06:09:44;2.90;;;2.70;;
32292;SDS011;43233;48.608;8.838;2023-04-25T06:12:10;4.67;;;2.70;;
32292;SDS011;43233;48.608;8.838;2023-04-25T06:14:36;2.53;;;2.23;;
32292;SDS011;43233;48.608;8.838;2023-04-25T06:17:02;2.80;;;2.60;;
32292;SDS011;43233;48.608;8.838;2023-04-25T06:19:35;3.23;;;2.90;;
32292;SDS011;43233;48.608;8.838;2023-04-25T06:22:01;2.67;;;2.40;;
32292;SDS011;43233;48.608;8.838;2023-04-25T06:24:27;3.87;;;3.00;;
32292;SDS011;43233;48.608;8.838;2023-04-25T06:26:53;3.00;;;2.70;;
32292;SDS011;43233;48.608;8.838;2023-04-25T06:29:19;4.10;;;3.70;;
32292;SDS011;43233;48.608;8.838;2023-04-25T06:31:45;5.70;;;3.23;;
32292;SDS011;43233;48.608;8.838;2023-04-25T06:34:10;6.27;;;4.00;;
32292;SDS011;43233;48.608;8.838;2023-04-25T06:36:36;8.20;;;3.73;;
32292;SDS011;43233;48.608;8.838;2023-04-25T06:39:02;4.23;;;3.93;;
32292;SDS011;43233;48.608;8.838;2023-04-25T06:41:28;6.80;;;4.23;;
32292;SDS011;43233;48.608;8.838;2023-04-25T06:43:53;7.13;;;3.80;;
32292;SDS011;43233;48.608;8.838;2023-04-25T06:46:19;6.03;;;4.40;;
32292;SDS011;43233;48.608;8.838;2023-04-25T06:48:44;5.50;;;3.87;;
32292;SDS011;43233;48.608;8.838;2023-04-25T06:51:10;5.00;;;3.70;;
32292;SDS011;43233;48.608;8.838;2023-04-25T06:53:38;4.67;;;3.80;;
32292;SDS011;43233;48.608;8.838;2023-04-25T06:56:04;3.63;;;3.33;;
32292;SDS011;43233;48.608;8.838;2023-04-25T06:58:29;3.53;;;3.30;;
32292;SDS011;43233;48.608;8.838;2023-04-25T07:00:55;5.87;;;4.50;;
32292;SDS011;43233;48.608;8.838;2023-04-25T07:03:21;4.83;;;3.50;;
32292;SDS011;43233;48.608;8.838;2023-04-25T07:05:46;3.50;;;3.20;;
32292;SDS011;43233;48.608;8.838;2023-04-25T07:08:12;7.57;;;4.50;;
32292;SDS011;43233;48.608;8.838;2023-04-25T07:10:38;3.57;;;3.27;;
32292;SDS011;43233;48.608;8.838;2023-04-25T07:13:04;7.00;;;3.80;;
32292;SDS011;43233;48.608;8.838;2023-04-25T07:15:29;5.73;;;3.00;;
32292;SDS011;43233;48.608;8.838;2023-04-25T07:17:55;4.73;;;3.60;;
32292;SDS011;43233;48.608;8.838;2023-04-25T07:20:21;4.07;;;3.63;;
32292;SDS011;43233;48.608;8.838;2023-04-25T07:22:46;3.77;;;3.23;;
32292;SDS011;43233;48.608;8.838;2023-04-25T07:25:12;3.60;;;3.30;;
32292;SDS011;43233;48.608;8.838;2023-04-25T07:27:38;4.93;;;3.43;;
32292;SDS011;43233;48.608;8.838;2023-04-25T07:30:04;4.43;;;4.03;;
32292;SDS011;43233;48.608;8.838;2023-04-25T07:32:31;3.20;;;2.90;;
32292;SDS011;43233;48.608;8.838;2023-04-25T07:34:56;2.90;;;2.70;;
32292;SDS011;43233;48.608;8.838;2023-04-25T07:37:22;3.83;;;3.50;;
32292;SDS011;43233;48.608;8.838;2023-04-25T07:39:47;3.33;;;3.13;;
32292;SDS011;43233;48.608;8.838;2023-04-25T07:42:13;3.57;;;3.23;;
32292;SDS011;43233;48.608;8.838;2023-04-25T07:44:39;5.07;;;4.07;;
32292;SDS011;43233;48.608;8.838;2023-04-25T07:47:06;4.43;;;4.03;;
32292;SDS011;43233;48.608;8.838;2023-04-25T07:49:32;3.57;;;3.27;;
32292;SDS011;43233;48.608;8.838;2023-04-25T07:51:59;3.73;;;3.43;;
32292;SDS011;43233;48.608;8.838;2023-04-25T07:54:25;3.80;;;3.50;;
32292;SDS011;43233;48.608;8.838;2023-04-25T07:56:51;3.13;;;2.93;;
32292;SDS011;43233;48.608;8.838;2023-04-25T07:59:17;4.83;;;3.37;;
32292;SDS011;43233;48.608;8.838;2023-04-25T08:01:42;4.50;;;4.10;;
32292;SDS011;43233;48.608;8.838;2023-04-25T08:04:08;5.13;;;3.40;;
32292;SDS011;43233;48.608;8.838;2023-04-25T08:06:34;3.90;;;3.50;;
32292;SDS011;43233;48.608;8.838;2023-04-25T08:08:59;4.33;;;3.97;;
32292;SDS011;43233;48.608;8.838;2023-04-25T08:11:25;3.73;;;3.33;;
32292;SDS011;43233;48.608;8.838;2023-04-25T08:13:51;6.37;;;5.60;;
32292;SDS011;43233;48.608;8.838;2023-04-25T08:16:16;4.30;;;4.00;;
32292;SDS011;43233;48.608;8.838;2023-04-25T08:18:42;16.97;;;3.80;;
32292;SDS011;43233;48.608;8.838;2023-04-25T08:21:07;4.40;;;4.10;;
32292;SDS011;43233;48.608;8.838;2023-04-25T08:23:36;4.30;;;3.90;;
32292;SDS011;43233;48.608;8.838;2023-04-25T08:26:02;4.07;;;3.77;;
32292;SDS011;43233;48.608;8.838;2023-04-25T08:28:28;3.77;;;3.40;;
32292;SDS011;43233;48.608;8.838;2023-04-25T08:30:53;4.47;;;4.07;;
32292;SDS011;43233;48.608;8.838;2023-04-25T08:33:19;6.03;;;5.40;;
32292;SDS011;43233;48.608;8.838;2023-04-25T08:35:45;4.50;;;4.10;;
32292;SDS011;43233;48.608;8.838;2023-04-25T08:38:10;4.00;;;3.60;;
32292;SDS011;43233;48.608;8.838;2023-04-25T08:40:38;6.50;;;3.80;;
32292;SDS011;43233;48.608;8.838;2023-04-25T08:43:05;4.23;;;3.83;;
32292;SDS011;43233;48.608;8.838;2023-04-25T08:45:36;5.30;;;4.80;;
32292;SDS011;43233;48.608;8.838;2023-04-25T08:48:11;3.63;;;3.27;;
32292;SDS011;43233;48.608;8.838;2023-04-25T08:50:43;4.03;;;3.63;;
32292;SDS011;43233;48.608;8.838;2023-04-25T08:53:15;5.93;;;4.70;;
32292;SDS011;43233;48.608;8.838;2023-04-25T08:55:45;3.43;;;3.23;;
32292;SDS011;43233;48.608;8.838;2023-04-25T08:58:11;3.80;;;2.93;;
32292;SDS011;43233;48.608;8.838;2023-04-25T09:00:38;5.40;;;4.80;;
32292;SDS011;43233;48.608;8.838;2023-04-25T09:03:04;2.80;;;2.10;;
32292;SDS011;43233;48.608;8.838;2023-04-25T09:05:32;2.53;;;2.43;;
32292;SDS011;43233;48.608;8.838;2023-04-25T09:07:58;1.83;;;1.73;;
32292;SDS011;43233;48.608;8.838;2023-04-25T09:10:25;2.10;;;2.00;;
32292;SDS011;43233;48.608;8.838;2023-04-25T09:15:51;1.80;;;1.70;;
32292;SDS011;43233;48.608;8.838;2023-04-25T09:18:30;1.50;;;1.40;;
32292;SDS011;43233;48.608;8.838;2023-04-25T09:21:09;1.80;;;1.70;;
32292;SDS011;43233;48.608;8.838;2023-04-25T09:23:44;2.10;;;2.00;;
32292;SDS011;43233;48.608;8.838;2023-04-25T09:26:13;2.20;;;1.50;;
32292;SDS011;43233;48.608;8.838;2023-04-25T09:28:43;2.10;;;2.00;;
32292;SDS011;43233;48.608;8.838;2023-04-25T09:31:10;1.47;;;1.47;;
32292;SDS011;43233;48.608;8.838;2023-04-25T09:33:37;1.33;;;1.33;;
32292;SDS011;43233;48.608;8.838;2023-04-25T09:36:09;1.40;;;1.40;;
32292;SDS011;43233;48.608;8.838;2023-04-25T09:38:42;1.57;;;1.57;;
32292;SDS011;43233;48.608;8.838;2023-04-25T09:41:09;1.40;;;1.40;;
32292;SDS011;43233;48.608;8.838;2023-04-25T09:43:35;1.30;;;1.30;;
32292;SDS011;43233;48.608;8.838;2023-04-25T09:46:01;3.70;;;1.50;;
32292;SDS011;43233;48.608;8.838;2023-04-25T09:48:28;1.20;;;1.20;;
32292;SDS011;43233;48.608;8.838;2023-04-25T09:51:07;1.57;;;1.57;;
32292;SDS011;43233;48.608;8.838;2023-04-25T09:53:35;1.60;;;1.50;;
32292;SDS011;43233;48.608;8.838;2023-04-25T09:56:06;1.90;;;1.80;;
32292;SDS011;43233;48.608;8.838;2023-04-25T09:58:33;1.50;;;1.50;;
32292;SDS011;43233;48.608;8.838;2023-04-25T10:01:04;1.20;;;1.20;;
32292;SDS011;43233;48.608;8.838;2023-04-25T10:03:34;1.50;;;1.50;;
32292;SDS011;43233;48.608;8.838;2023-04-25T10:06:02;1.40;;;1.40;;
32292;SDS011;43233;48.608;8.838;2023-04-25T10:08:37;1.30;;;1.30;;
32292;SDS011;43233;48.608;8.838;2023-04-25T10:11:06;1.60;;;1.53;;
32292;SDS011;43233;48.608;8.838;2023-04-25T10:13:33;1.53;;;1.43;;
32292;SDS011;43233;48.608;8.838;2023-04-25T10:16:01;1.30;;;1.20;;
32292;SDS011;43233;48.608;8.838;2023-04-25T10:18:29;1.10;;;1.10;;
32292;SDS011;43233;48.608;8.838;2023-04-25T10:20:57;1.30;;;1.30;;
32292;SDS011;43233;48.608;8.838;2023-04-25T10:23:24;1.20;;;1.20;;
32292;SDS011;43233;48.608;8.838;2023-04-25T10:25:51;1.20;;;1.20;;
32292;SDS011;43233;48.608;8.838;2023-04-25T10:28:18;1.60;;;1.50;;
32292;SDS011;43233;48.608;8.838;2023-04-25T10:31:00;1.30;;;1.30;;
32292;SDS011;43233;48.608;8.838;2023-04-25T10:33:34;1.67;;;1.57;;
32292;SDS011;43233;48.608;8.838;2023-04-25T10:38:43;1.60;;;1.50;;
32292;SDS011;43233;48.608;8.838;2023-04-25T10:41:11;2.27;;;2.17;;
32292;SDS011;43233;48.608;8.838;2023-04-25T10:43:39;1.20;;;1.20;;
32292;SDS011;43233;48.608;8.838;2023-04-25T10:46:23;1.37;;;1.27;;
32292;SDS011;43233;48.608;8.838;2023-04-25T10:51:16;1.30;;;1.20;;
32292;SDS011;43233;48.608;8.838;2023-04-25T10:56:20;1.20;;;1.20;;
32292;SDS011;43233;48.608;8.838;2023-04-25T10:58:47;1.03;;;1.00;;
32292;SDS011;43233;48.608;8.838;2023-04-25T11:01:14;1.20;;;1.20;;
32292;SDS011;43233;48.608;8.838;2023-04-25T11:03:44;0.90;;;0.90;;
32292;SDS011;43233;48.608;8.838;2023-04-25T11:06:22;1.10;;;1.10;;
32292;SDS011;43233;48.608;8.838;2023-04-25T11:08:54;1.10;;;1.10;;
32292;SDS011;43233;48.608;8.838;2023-04-25T11:11:20;1.00;;;1.00;;
32292;SDS011;43233;48.608;8.838;2023-04-25T11:13:49;1.00;;;1.00;;
32292;SDS011;43233;48.608;8.838;2023-04-25T11:16:15;1.00;;;1.00;;
32292;SDS011;43233;48.608;8.838;2023-04-25T11:18:45;1.10;;;1.10;;
32292;SDS011;43233;48.608;8.838;2023-04-25T11:21:11;1.40;;;1.30;;
32292;SDS011;43233;48.608;8.838;2023-04-25T11:23:36;1.40;;;1.30;;
32292;SDS011;43233;48.608;8.838;2023-04-25T11:26:03;0.90;;;0.90;;
32292;SDS011;43233;48.608;8.838;2023-04-25T11:28:29;1.10;;;1.10;;
32292;SDS011;43233;48.608;8.838;2023-04-25T11:30:55;1.10;;;1.10;;
32292;SDS011;43233;48.608;8.838;2023-04-25T11:33:24;1.33;;;1.23;;
32292;SDS011;43233;48.608;8.838;2023-04-25T11:35:55;1.10;;;1.10;;
32292;SDS011;43233;48.608;8.838;2023-04-25T11:38:21;1.87;;;1.77;;
32292;SDS011;43233;48.608;8.838;2023-04-25T11:40:50;1.10;;;1.10;;
32292;SDS011;43233;48.608;8.838;2023-04-25T11:43:22;1.77;;;1.67;;
32292;SDS011;43233;48.608;8.838;2023-04-25T11:45:48;1.93;;;1.83;;
32292;SDS011;43233;48.608;8.838;2023-04-25T11:48:15;1.67;;;1.67;;
32292;SDS011;43233;48.608;8.838;2023-04-25T11:50:41;1.77;;;1.67;;
32292;SDS011;43233;48.608;8.838;2023-04-25T11:53:07;2.73;;;2.30;;
32292;SDS011;43233;48.608;8.838;2023-04-25T11:55:33;1.87;;;1.77;;
32292;SDS011;43233;48.608;8.838;2023-04-25T11:58:00;1.27;;;1.27;;
32292;SDS011;43233;48.608;8.838;2023-04-25T12:00:27;1.87;;;1.73;;
32292;SDS011;43233;48.608;8.838;2023-04-25T12:02:54;1.93;;;1.83;;
32292;SDS011;43233;48.608;8.838;2023-04-25T12:05:26;4.70;;;2.07;;
32292;SDS011;43233;48.608;8.838;2023-04-25T12:07:54;2.57;;;2.37;;
32292;SDS011;43233;48.608;8.838;2023-04-25T12:10:19;3.20;;;3.00;;
32292;SDS011;43233;48.608;8.838;2023-04-25T12:12:46;2.80;;;2.60;;
32292;SDS011;43233;48.608;8.838;2023-04-25T12:15:13;5.27;;;2.80;;
32292;SDS011;43233;48.608;8.838;2023-04-25T12:17:58;4.10;;;2.93;;
32292;SDS011;43233;48.608;8.838;2023-04-25T12:20:26;3.90;;;3.10;;
32292;SDS011;43233;48.608;8.838;2023-04-25T12:22:52;3.50;;;3.20;;
32292;SDS011;43233;48.608;8.838;2023-04-25T12:33:26;3.30;;;3.10;;
32292;SDS011;43233;48.608;8.838;2023-04-25T12:35:54;3.43;;;3.07;;
32292;SDS011;43233;48.608;8.838;2023-04-25T12:38:24;5.33;;;2.87;;
32292;SDS011;43233;48.608;8.838;2023-04-25T12:40:52;2.83;;;2.63;;
32292;SDS011;43233;48.608;8.838;2023-04-25T12:43:17;3.17;;;2.97;;
32292;SDS011;43233;48.608;8.838;2023-04-25T12:45:44;3.23;;;2.90;;
32292;SDS011;43233;48.608;8.838;2023-04-25T12:48:12;2.80;;;2.60;;
32292;SDS011;43233;48.608;8.838;2023-04-25T12:50:37;2.93;;;2.73;;
32292;SDS011;43233;48.608;8.838;2023-04-25T12:53:03;3.43;;;3.13;;
32292;SDS011;43233;48.608;8.838;2023-04-25T12:55:29;5.10;;;3.20;;
32292;SDS011;43233;48.608;8.838;2023-04-25T12:57:54;2.90;;;2.70;;
32292;SDS011;43233;48.608;8.838;2023-04-25T13:00:20;2.60;;;2.40;;
32292;SDS011;43233;48.608;8.838;2023-04-25T13:02:46;2.23;;;2.10;;
32292;SDS011;43233;48.608;8.838;2023-04-25T13:05:12;2.67;;;2.50;;
32292;SDS011;43233;48.608;8.838;2023-04-25T13:07:38;2.80;;;2.60;;
32292;SDS011;43233;48.608;8.838;2023-04-25T13:10:04;3.23;;;2.50;;
32292;SDS011;43233;48.608;8.838;2023-04-25T13:12:30;3.23;;;3.00;;
32292;SDS011;43233;48.608;8.838;2023-04-25T13:14:56;3.47;;;3.13;;
32292;SDS011;43233;48.608;8.838;2023-04-25T13:17:22;3.13;;;2.90;;
32292;SDS011;43233;48.608;8.838;2023-04-25T13:19:47;2.90;;;2.70;;
32292;SDS011;43233;48.608;8.838;2023-04-25T13:22:13;2.53;;;2.40;;
32292;SDS011;43233;48.608;8.838;2023-04-25T13:24:41;4.97;;;2.30;;
32292;SDS011;43233;48.608;8.838;2023-04-25T13:27:07;3.90;;;2.33;;
32292;SDS011;43233;48.608;8.838;2023-04-25T13:29:33;5.00;;;1.77;;
32292;SDS011;43233;48.608;8.838;2023-04-25T13:32:00;1.93;;;1.83;;
32292;SDS011;43233;48.608;8.838;2023-04-25T13:34:27;1.93;;;1.83;;
32292;SDS011;43233;48.608;8.838;2023-04-25T13:36:53;2.30;;;2.20;;
32292;SDS011;43233;48.608;8.838;2023-04-25T13:39:19;2.03;;;1.93;;
32292;SDS011;43233;48.608;8.838;2023-04-25T13:41:45;2.13;;;2.03;;
32292;SDS011;43233;48.608;8.838;2023-04-25T13:44:11;7.20;;;3.33;;
32292;SDS011;43233;48.608;8.838;2023-04-25T13:46:37;3.23;;;3.03;;
32292;SDS011;43233;48.608;8.838;2023-04-25T13:49:03;4.50;;;4.10;;
32292;SDS011;43233;48.608;8.838;2023-04-25T13:51:29;3.37;;;3.17;;
32292;SDS011;43233;48.608;8.838;2023-04-25T13:53:55;4.33;;;2.50;;
32292;SDS011;43233;48.608;8.838;2023-04-25T13:56:21;2.80;;;2.60;;
32292;SDS011;43233;48.608;8.838;2023-04-25T13:58:48;3.30;;;3.00;;
32292;SDS011;43233;48.608;8.838;2023-04-25T14:01:15;4.80;;;4.50;;
32292;SDS011;43233;48.608;8.838;2023-04-25T14:03:40;2.93;;;2.73;;
32292;SDS011;43233;48.608;8.838;2023-04-25T14:06:07;3.23;;;3.03;;
32292;SDS011;43233;48.608;8.838;2023-04-25T14:08:33;5.50;;;5.00;;
32292;SDS011;43233;48.608;8.838;2023-04-25T14:10:59;3.40;;;3.10;;
32292;SDS011;43233;48.608;8.838;2023-04-25T14:13:25;4.07;;;3.67;;
32292;SDS011;43233;48.608;8.838;2023-04-25T14:15:51;4.20;;;3.87;;
32292;SDS011;43233;48.608;8.838;2023-04-25T14:18:17;3.67;;;3.40;;
32292;SDS011;43233;48.608;8.838;2023-04-25T14:20:44;5.90;;;3.57;;
32292;SDS011;43233;48.608;8.838;2023-04-25T14:23:10;4.47;;;3.30;;
32292;SDS011;43233;48.608;8.838;2023-04-25T14:25:36;3.53;;;3.20;;
32292;SDS011;43233;48.608;8.838;2023-04-25T14:28:02;3.83;;;2.90;;
32292;SDS011;43233;48.608;8.838;2023-04-25T14:30:27;3.27;;;2.90;;
32292;SDS011;43233;48.608;8.838;2023-04-25T14:32:53;3.73;;;3.00;;
32292;SDS011;43233;48.608;8.838;2023-04-25T14:35:19;5.90;;;3.70;;
32292;SDS011;43233;48.608;8.838;2023-04-25T14:37:45;4.43;;;3.00;;
32292;SDS011;43233;48.608;8.838;2023-04-25T14:40:11;2.73;;;2.53;;
32292;SDS011;43233;48.608;8.838;2023-04-25T14:42:38;2.60;;;2.50;;
32292;SDS011;43233;48.608;8.838;2023-04-25T14:45:05;10.90;;;2.93;;
32292;SDS011;43233;48.608;8.838;2023-04-25T14:47:32;3.73;;;3.33;;
32292;SDS011;43233;48.608;8.838;2023-04-25T14:49:58;11.07;;;3.60;;
32292;SDS011;43233;48.608;8.838;2023-04-25T14:52:24;2.50;;;2.40;;
32292;SDS011;43233;48.608;8.838;2023-04-25T14:54:50;3.00;;;2.80;;
32292;SDS011;43233;48.608;8.838;2023-04-25T14:57:16;2.03;;;1.93;;
32292;SDS011;43233;48.608;8.838;2023-04-25T14:59:42;2.70;;;2.50;;
32292;SDS011;43233;48.608;8.838;2023-04-25T15:02:08;2.27;;;2.17;;
32292;SDS011;43233;48.608;8.838;2023-04-25T15:04:33;2.17;;;2.07;;